Terminal Aerodrome Forecast
Issued by NWS Green Bay, WI

Home | Current Version | Previous Version | Graphics & Text | Print | Product List | Glossary On
Versions: 1 2 3 4 5 6 7 8 9 10 11 12 13 14 15 16 17 18 19 20 21 22 23 24 25 26 27 28 29 30 31 32
000
FTUS43 KGRB 282300
TAFGRB
TAF
KGRB 282337Z 2900/2924 15011KT P6SM SCT100 OVC150 WS014/17035KT
     FM290500 14008KT 6SM BR SCT025 OVC040 WS014/19030KT
     FM290700 14006KT 4SM -FZDZ BR SCT009 OVC020
     FM290900 VRB03KT 3SM -FZDZ BR OVC007
     FM291200 33006KT 2SM -SN BR BKN008 OVC020
     FM291400 32008G15KT 5SM -SN BKN012 OVC035
     FM291600 32018G25KT P6SM -SN BKN025 BKN040=

USA.gov is the U.S. government's official web portal to all federal, state and local government web resources and services.